Historique des mesures à Cassis (13260), France
Quotidien Résumé Septembre 13, 2017 Unités:  Métrique    US   Métrique/US
« Précédent (Jour)
Suivant (Jour) »
Quotidien Hebdomadaire Mensuel Annuel Période au choix
  Maximum: Minimum: Moyenne:
Température: TemperatureC °C 17.4 °C 19.5 °C
Point de rosée: DewpointC °C 5.9 °C 9.7 °C
Humidité: Humidity % 42 % 50 %
Vitesse du vent: 0 km/h 0 km/h 10.9 km/h
Rafales: 0 km/h - -
Vent:- - West
Pression: PressurehPa hPa 1013.8 hPa -
Précipitations: 0.0 mm    
Historical Graphs
 
 
Mesures pour : Septembre 13, 2017
Heure Temperature Point de rosée Pression Vent Vitesse du vent Rafales Humidité Pluie (par heure) Conditions
TemperatureC °C DewpointC °C PressurehPa hPa Calm     Humidity % HourlyPrecipMM mm SoftwareType W/m2
00:11 19.6 °C 6.3 °C 1013.8 hPa WNW 42.6 km/h 42.6 km/h 42 % 0.0 mm open2300-1.11 W/m2
01:11 19.2 °C 5.9 °C 1014.1 hPa NNW 25.4 km/h 25.4 km/h 42 % 0.0 mm open2300-1.11 W/m2
02:11 19.4 °C 6.4 °C 1014.1 hPa NW 18.7 km/h 39.9 km/h 43 % 0.0 mm open2300-1.11 W/m2
03:11 18.8 °C 6.2 °C 1014.4 hPa North 2.3 km/h 7.6 km/h 44 % 0.0 mm open2300-1.11 W/m2
04:11 18.2 °C 6.3 °C 1014.8 hPa Calm   5.1 km/h 46 % 0.0 mm open2300-1.11 W/m2
06:11 17.9 °C 7.6 °C 1014.8 hPa NNE 12.2 km/h 27.2 km/h 51 % 0.0 mm open2300-1.11 W/m2
07:11 17.8 °C 7.8 °C 1015.8 hPa NNW 15.6 km/h 16.3 km/h 52 % 0.0 mm open2300-1.11 W/m2
08:11 17.4 °C 7.9 °C 1016.1 hPa NNW 4.2 km/h 4.2 km/h 54 % 0.0 mm open2300-1.11 W/m2
09:11 18.1 °C 8.3 °C 1016.1 hPa WNW 8 km/h 13.2 km/h 53 % 0.0 mm open2300-1.11 W/m2
10:11 19.3 °C 8.7 °C 1016.8 hPa NNE 8 km/h 13.2 km/h 50 % 0.0 mm open2300-1.11 W/m2
11:11 20.9 °C 9.8 °C 1017.8 hPa NW 4.2 km/h 12.2 km/h 49 % 0.0 mm open2300-1.11 W/m2
12:11 21.5 °C 10.3 °C 1017.2 hPa NNW 10.3 km/h 19.2 km/h 49 % 0.0 mm open2300-1.11 W/m2
13:11 21.7 °C 10.8 °C 1017.2 hPa WNW 19.2 km/h 40.7 km/h 50 % 0.0 mm open2300-1.11 W/m2
14:11 22.1 °C 11.8 °C 1017.5 hPa NW 15 km/h 16.3 km/h 52 % 0.0 mm open2300-1.11 W/m2
15:11 21.9 °C 12.1 °C 1016.8 hPa NW 33.6 km/h 37.5 km/h 54 % 0.0 mm open2300-1.11 W/m2
16:11 22.4 °C 12.6 °C 1016.1 hPa WNW 23 km/h 32.3 km/h 54 % 0.0 mm open2300-1.11 W/m2
17:11 22.9 °C 13.3 °C 1015.8 hPa SE 2.3 km/h 7.6 km/h 55 % 0.0 mm open2300-1.11 W/m2
18:11 23.0 °C 13.4 °C 1015.8 hPa NNW 6.4 km/h 6.4 km/h 55 % 0.0 mm open2300-1.11 W/m2
19:11 22.9 °C 13.6 °C 1015.5 hPa NNW 4.7 km/h 10.9 km/h 56 % 0.0 mm open2300-1.11 W/m2
20:11 21.8 °C 13.4 °C 1015.5 hPa NW 7.6 km/h 16.3 km/h 59 % 0.0 mm open2300-1.11 W/m2
21:11 20.8 °C 13.1 °C 1015.8 hPa Calm   1.8 km/h 61 % 0.0 mm open2300-1.11 W/m2
22:11 20.1 °C 12.8 °C 1015.8 hPa Calm     63 % 0.0 mm open2300-1.11 W/m2
23:11 19.9 °C 13.6 °C 1015.8 hPa Calm     67 % 0.0 mm open2300-1.11 W/m2
Observations météo à CASSIS
WU-History script by Weather Underground - 1 mb